Time;durP1;ratioP1;P1;durP2;ratioP2;P2;SDS_P1;SDS_P2;PMS_P1;PMS_P2;Temp;Humidity;BMP_temperature;BMP_pressure;BME280_temperature;BME280_humidity;BME280_pressure;Samples;Min_cycle;Max_cycle;Signal;HPM_P1;HPM_P2
2021/12/08 00:00:10;;;;;;;58.95;34.45;;;;;;;;;;5051808;28;20036;-86
2021/12/08 00:02:35;;;;;;;62.50;35.28;;;;;;;;;;5052295;28;20017;-86
2021/12/08 00:05:01;;;;;;;57.95;34.30;;;;;;;;;;5069873;28;20070;-86
2021/12/08 00:07:26;;;;;;;62.17;36.55;;;;;;;;;;5069770;28;20020;-86
2021/12/08 00:10:12;;;;;;;65.65;37.80;;;;;;;;;;5054076;28;20036;-86
2021/12/08 00:15:20;;;;;;;57.38;33.70;;;;;;;;;;5070191;28;20823;-86
2021/12/08 00:17:46;;;;;;;58.42;34.25;;;;;;;;;;5069517;28;20033;-86
2021/12/08 00:20:11;;;;;;;63.28;36.17;;;;;;;;;;5069691;28;20059;-86
2021/12/08 00:22:36;;;;;;;61.70;37.03;;;;;;;;;;5051515;28;20025;-86
2021/12/08 00:25:02;;;;;;;62.28;36.15;;;;;;;;;;5051438;28;20116;-86
2021/12/08 00:27:27;;;;;;;62.50;34.50;;;;;;;;;;5069229;28;20084;-86
2021/12/08 00:29:53;;;;;;;60.47;35.50;;;;;;;;;;5051480;28;20441;-86
2021/12/08 00:32:20;;;;;;;62.67;35.27;;;;;;;;;;5072431;28;20029;-86
2021/12/08 00:34:46;;;;;;;60.55;33.30;;;;;;;;;;5073514;28;20350;-86
2021/12/08 00:37:12;;;;;;;61.03;34.75;;;;;;;;;;5056143;28;20123;-86
2021/12/08 00:39:37;;;;;;;59.67;34.25;;;;;;;;;;5073192;28;20380;-86
2021/12/08 00:42:02;;;;;;;67.90;38.10;;;;;;;;;;5075005;28;20032;-85
2021/12/08 00:44:27;;;;;;;60.88;35.67;;;;;;;;;;5057075;28;20035;-86
2021/12/08 00:46:52;;;;;;;63.92;37.72;;;;;;;;;;5055113;28;20130;-86
2021/12/08 00:49:18;;;;;;;60.47;34.27;;;;;;;;;;5054895;28;20020;-85
2021/12/08 00:51:43;;;;;;;65.57;36.28;;;;;;;;;;5073050;28;20258;-86
2021/12/08 00:54:08;;;;;;;62.05;33.55;;;;;;;;;;5055082;28;20392;-86
2021/12/08 00:56:34;;;;;;;58.88;36.22;;;;;;;;;;5054920;28;20038;-86
2021/12/08 00:58:59;;;;;;;60.08;35.35;;;;;;;;;;5072796;28;20025;-86
2021/12/08 01:01:25;;;;;;;59.83;34.60;;;;;;;;;;5072914;28;20024;-86
2021/12/08 01:03:50;;;;;;;63.45;35.10;;;;;;;;;;5072639;28;20029;-85
2021/12/08 01:06:17;;;;;;;64.15;35.22;;;;;;;;;;5054688;28;20059;-86
2021/12/08 01:08:42;;;;;;;59.78;35.47;;;;;;;;;;5072672;28;20017;-86
2021/12/08 01:11:10;;;;;;;63.72;37.15;;;;;;;;;;5072676;28;20027;-85
2021/12/08 01:13:36;;;;;;;62.55;37.33;;;;;;;;;;5074962;28;20036;-86
2021/12/08 01:16:02;;;;;;;66.25;38.58;;;;;;;;;;5072546;28;20059;-85
2021/12/08 01:18:28;;;;;;;58.67;35.20;;;;;;;;;;5054560;28;20085;-86
2021/12/08 01:20:54;;;;;;;72.38;39.88;;;;;;;;;;5072408;28;20027;-86
2021/12/08 01:23:20;;;;;;;67.88;38.08;;;;;;;;;;5072543;28;20025;-86
2021/12/08 01:25:45;;;;;;;64.72;38.72;;;;;;;;;;5072683;28;20030;-86
2021/12/08 01:28:11;;;;;;;66.38;38.05;;;;;;;;;;5054076;28;20507;-86
2021/12/08 01:30:36;;;;;;;64.10;38.63;;;;;;;;;;5054204;28;20853;-85
2021/12/08 01:33:03;;;;;;;71.95;39.63;;;;;;;;;;5054076;28;20111;-85
2021/12/08 01:35:28;;;;;;;65.30;37.53;;;;;;;;;;5054198;28;20028;-86
2021/12/08 01:37:53;;;;;;;72.30;40.30;;;;;;;;;;5072110;28;20033;-86
2021/12/08 01:40:19;;;;;;;69.38;38.08;;;;;;;;;;5072033;28;20025;-86
2021/12/08 01:42:47;;;;;;;67.82;37.38;;;;;;;;;;5072056;28;20047;-86
2021/12/08 01:47:58;;;;;;;68.90;40.15;;;;;;;;;;5074117;28;20407;-86
2021/12/08 01:50:23;;;;;;;65.47;34.40;;;;;;;;;;5053852;28;20024;-86
2021/12/08 01:52:49;;;;;;;66.30;37.20;;;;;;;;;;5053775;28;20048;-86
2021/12/08 01:55:14;;;;;;;64.07;37.70;;;;;;;;;;5072317;28;20119;-86
2021/12/08 01:57:40;;;;;;;60.60;36.42;;;;;;;;;;5071887;28;20032;-86
2021/12/08 02:00:09;;;;;;;65.30;35.80;;;;;;;;;;5053820;28;20028;-86
2021/12/08 02:02:35;;;;;;;69.13;36.45;;;;;;;;;;5053805;28;20081;-86
2021/12/08 02:05:01;;;;;;;61.33;34.03;;;;;;;;;;5071670;28;20024;-86
2021/12/08 02:07:26;;;;;;;64.30;37.20;;;;;;;;;;5071730;28;20023;-86
2021/12/08 02:09:51;;;;;;;65.67;33.60;;;;;;;;;;5071609;28;20031;-86
2021/12/08 02:12:16;;;;;;;60.07;33.50;;;;;;;;;;5071958;28;20254;-86
2021/12/08 02:14:41;;;;;;;58.70;33.03;;;;;;;;;;5071422;28;20291;-86
2021/12/08 02:17:10;;;;;;;60.63;34.17;;;;;;;;;;5073945;28;20144;-86
2021/12/08 02:19:35;;;;;;;64.63;35.75;;;;;;;;;;5053352;28;20126;-86
2021/12/08 02:22:01;;;;;;;63.38;34.92;;;;;;;;;;5053439;28;20051;-86
2021/12/08 02:24:26;;;;;;;62.45;34.20;;;;;;;;;;5053338;28;20028;-85
2021/12/08 02:26:51;;;;;;;60.83;34.35;;;;;;;;;;5053029;28;20544;-86
2021/12/08 02:29:22;;;;;;;68.68;36.60;;;;;;;;;;5071180;28;20024;-86
2021/12/08 02:32:04;;;;;;;63.23;36.70;;;;;;;;;;5053069;28;20024;-86
2021/12/08 02:48:09;;;;;;;68.38;36.13;;;;;;;;;;5071272;28;20082;-86
2021/12/08 02:50:37;;;;;;;64.10;34.47;;;;;;;;;;5070801;28;20020;-85
2021/12/08 02:53:04;;;;;;;59.97;33.78;;;;;;;;;;5070351;28;20292;-86
2021/12/08 02:55:29;;;;;;;62.25;34.55;;;;;;;;;;5052403;28;20017;-86
2021/12/08 02:57:55;;;;;;;68.57;33.90;;;;;;;;;;5070770;28;20499;-86
2021/12/08 03:00:24;;;;;;;60.65;33.92;;;;;;;;;;5070623;28;20028;-86
2021/12/08 03:02:49;;;;;;;60.13;32.92;;;;;;;;;;5070735;28;20052;-86
2021/12/08 03:05:15;;;;;;;63.95;33.03;;;;;;;;;;5070713;28;20055;-86
2021/12/08 03:07:40;;;;;;;63.47;35.28;;;;;;;;;;5070566;28;20500;-86
2021/12/08 03:10:07;;;;;;;60.40;32.38;;;;;;;;;;5070650;28;20483;-86
2021/12/08 03:12:32;;;;;;;58.38;32.65;;;;;;;;;;5070384;28;20423;-86
2021/12/08 03:14:57;;;;;;;60.42;34.17;;;;;;;;;;5070205;28;20028;-85
2021/12/08 03:17:22;;;;;;;62.00;32.33;;;;;;;;;;5054858;28;20039;-86
2021/12/08 03:19:48;;;;;;;64.15;34.92;;;;;;;;;;5070282;28;20662;-86
2021/12/08 03:22:13;;;;;;;59.08;31.75;;;;;;;;;;5052147;28;20024;-85
2021/12/08 03:24:42;;;;;;;55.38;33.25;;;;;;;;;;5052141;28;20025;-86
2021/12/08 03:27:20;;;;;;;59.22;31.77;;;;;;;;;;5052190;28;20091;-86
2021/12/08 03:29:57;;;;;;;59.53;34.33;;;;;;;;;;5052196;28;20033;-86
2021/12/08 03:32:35;;;;;;;61.95;33.83;;;;;;;;;;5070190;28;20105;-86
2021/12/08 03:35:01;;;;;;;59.03;31.83;;;;;;;;;;5070178;28;20127;-86
2021/12/08 03:37:28;;;;;;;55.17;31.17;;;;;;;;;;5069821;28;20033;-86
2021/12/08 03:39:54;;;;;;;60.72;31.38;;;;;;;;;;5051985;28;20051;-85
2021/12/08 03:42:21;;;;;;;57.55;33.92;;;;;;;;;;5070119;28;20115;-86
2021/12/08 03:44:47;;;;;;;55.90;31.33;;;;;;;;;;5052049;28;20111;-86
2021/12/08 03:47:15;;;;;;;53.88;31.05;;;;;;;;;;5053925;28;20106;-86
2021/12/08 03:49:42;;;;;;;52.90;30.08;;;;;;;;;;5051774;28;20039;-85
2021/12/08 03:52:07;;;;;;;59.20;32.05;;;;;;;;;;5069817;28;20073;-85
2021/12/08 03:54:33;;;;;;;60.35;32.55;;;;;;;;;;5051786;28;20021;-85
2021/12/08 03:56:58;;;;;;;54.22;31.23;;;;;;;;;;5051642;28;20689;-85
2021/12/08 03:59:23;;;;;;;57.80;30.77;;;;;;;;;;5069699;28;20487;-85
2021/12/08 04:01:48;;;;;;;52.90;29.67;;;;;;;;;;5069731;28;20025;-86
2021/12/08 04:04:14;;;;;;;52.90;30.40;;;;;;;;;;5051520;28;20047;-86
2021/12/08 04:06:48;;;;;;;56.30;29.45;;;;;;;;;;5073542;28;20025;-86
2021/12/08 04:09:19;;;;;;;50.97;28.90;;;;;;;;;;5055766;28;20024;-86
2021/12/08 04:11:45;;;;;;;51.38;28.25;;;;;;;;;;5055920;28;20590;-86
2021/12/08 04:14:13;;;;;;;50.85;26.85;;;;;;;;;;5055545;28;20127;-86
2021/12/08 04:16:40;;;;;;;50.78;27.70;;;;;;;;;;5055155;28;20036;-86
2021/12/08 04:19:06;;;;;;;51.95;28.15;;;;;;;;;;5055679;28;20021;-86
2021/12/08 04:21:31;;;;;;;50.97;27.98;;;;;;;;;;5055402;28;20043;-86
2021/12/08 04:23:57;;;;;;;51.15;29.30;;;;;;;;;;5073427;28;20471;-86
2021/12/08 04:26:27;;;;;;;56.20;29.95;;;;;;;;;;5051965;28;20443;-86
2021/12/08 04:28:53;;;;;;;54.80;30.10;;;;;;;;;;5051992;28;20024;-86
2021/12/08 04:31:22;;;;;;;51.60;27.02;;;;;;;;;;5053601;28;20489;-86
2021/12/08 04:33:48;;;;;;;52.97;29.30;;;;;;;;;;5053345;28;20029;-86
2021/12/08 04:36:15;;;;;;;50.08;28.65;;;;;;;;;;5051507;28;20532;-86
2021/12/08 04:38:44;;;;;;;51.85;27.77;;;;;;;;;;5053145;28;20047;-86
2021/12/08 04:41:18;;;;;;;49.45;28.63;;;;;;;;;;5051893;28;20829;-86
2021/12/08 04:43:55;;;;;;;47.08;26.77;;;;;;;;;;5053395;28;20021;-86
2021/12/08 04:51:47;;;;;;;47.42;25.92;;;;;;;;;;5053645;28;20044;-87
2021/12/08 05:09:57;;;;;;;42.03;25.10;;;;;;;;;;5052911;28;20078;-86
2021/12/08 05:12:27;;;;;;;42.40;25.27;;;;;;;;;;5051237;28;20120;-86
2021/12/08 05:14:52;;;;;;;45.60;25.55;;;;;;;;;;5052714;28;20071;-86
2021/12/08 05:17:19;;;;;;;43.50;24.08;;;;;;;;;;5051798;28;20503;-86
2021/12/08 05:19:46;;;;;;;41.83;23.23;;;;;;;;;;5051132;28;20286;-87
2021/12/08 05:22:14;;;;;;;42.88;23.15;;;;;;;;;;5052726;28;20033;-86
2021/12/08 05:24:42;;;;;;;38.67;23.80;;;;;;;;;;5050993;28;20559;-86
2021/12/08 05:27:07;;;;;;;43.22;24.38;;;;;;;;;;5051781;28;20703;-86
2021/12/08 05:29:37;;;;;;;44.35;23.95;;;;;;;;;;5052338;28;20028;-86
2021/12/08 05:32:04;;;;;;;42.22;23.75;;;;;;;;;;5052499;28;20131;-86
2021/12/08 05:34:29;;;;;;;46.13;24.75;;;;;;;;;;5051160;28;20057;-86
2021/12/08 05:36:55;;;;;;;41.90;24.23;;;;;;;;;;5052230;28;20056;-86
2021/12/08 05:39:22;;;;;;;42.80;23.67;;;;;;;;;;5052251;28;20021;-86
2021/12/08 05:41:51;;;;;;;40.72;23.58;;;;;;;;;;5052280;28;20028;-85
2021/12/08 05:44:18;;;;;;;42.58;23.63;;;;;;;;;;5051987;28;20040;-86
2021/12/08 05:46:46;;;;;;;40.05;21.83;;;;;;;;;;5052005;28;20032;-86
2021/12/08 05:49:12;;;;;;;45.47;23.63;;;;;;;;;;5053513;28;20024;-85
2021/12/08 05:51:39;;;;;;;39.40;22.35;;;;;;;;;;5050855;28;20816;-86
2021/12/08 05:54:06;;;;;;;39.13;22.52;;;;;;;;;;5050699;28;20024;-86
2021/12/08 05:56:32;;;;;;;39.30;22.55;;;;;;;;;;5050432;28;20492;-85
2021/12/08 05:58:58;;;;;;;45.30;23.33;;;;;;;;;;5051871;28;20035;-86
2021/12/08 06:01:28;;;;;;;44.97;24.60;;;;;;;;;;5043722;28;20028;-86
2021/12/08 06:03:53;;;;;;;45.90;24.17;;;;;;;;;;5025139;28;20392;-86
2021/12/08 06:06:19;;;;;;;47.60;27.17;;;;;;;;;;5034585;28;20025;-86
2021/12/08 06:08:45;;;;;;;55.60;27.92;;;;;;;;;;5050768;28;20028;-86
2021/12/08 06:11:11;;;;;;;52.13;26.00;;;;;;;;;;5049453;28;20489;-86
2021/12/08 06:13:37;;;;;;;52.65;26.98;;;;;;;;;;5035828;28;20032;-86
2021/12/08 06:16:04;;;;;;;53.67;26.77;;;;;;;;;;5030466;28;20023;-86
2021/12/08 06:18:36;;;;;;;52.53;26.38;;;;;;;;;;5049506;28;20017;-86
2021/12/08 06:21:04;;;;;;;51.60;26.95;;;;;;;;;;5031471;28;20036;-86
2021/12/08 06:23:31;;;;;;;59.70;29.83;;;;;;;;;;5049655;28;20032;-86
2021/12/08 06:25:57;;;;;;;56.22;28.75;;;;;;;;;;5031764;28;20815;-86
2021/12/08 06:28:22;;;;;;;60.83;32.30;;;;;;;;;;5048562;28;20102;-86
2021/12/08 06:30:49;;;;;;;65.90;31.67;;;;;;;;;;5049341;28;20049;-86
2021/12/08 06:33:15;;;;;;;64.97;31.67;;;;;;;;;;5032367;28;20272;-86
2021/12/08 06:35:43;;;;;;;59.67;31.35;;;;;;;;;;5032816;28;20021;-86
2021/12/08 06:38:09;;;;;;;66.68;32.30;;;;;;;;;;5049702;28;20032;-86
2021/12/08 06:40:40;;;;;;;68.80;32.97;;;;;;;;;;5049092;28;20476;-87
2021/12/08 06:43:07;;;;;;;75.47;34.15;;;;;;;;;;5031731;28;20032;-87
2021/12/08 06:45:37;;;;;;;75.38;34.47;;;;;;;;;;5049523;28;20025;-87
2021/12/08 06:48:15;;;;;;;80.60;35.15;;;;;;;;;;5031754;28;20149;-87
2021/12/08 06:50:47;;;;;;;68.38;35.10;;;;;;;;;;5049742;28;20389;-87
2021/12/08 06:53:12;;;;;;;74.53;35.42;;;;;;;;;;5048850;28;20060;-87
2021/12/08 06:55:43;;;;;;;89.53;38.85;;;;;;;;;;5035246;28;20044;-87
2021/12/08 06:58:12;;;;;;;77.15;38.55;;;;;;;;;;5032017;28;20556;-88
2021/12/08 07:00:55;;;;;;;78.43;37.55;;;;;;;;;;5050611;28;20028;-88
2021/12/08 07:03:46;;;;;;;83.35;39.45;;;;;;;;;;5050626;28;20066;-88
2021/12/08 07:06:29;;;;;;;76.53;37.30;;;;;;;;;;5032622;28;20062;-88
2021/12/08 07:08:55;;;;;;;108.55;44.53;;;;;;;;;;5050624;28;20021;-88
2021/12/08 07:11:21;;;;;;;81.03;40.38;;;;;;;;;;5032491;28;20029;-89
2021/12/08 07:13:48;;;;;;;84.90;38.35;;;;;;;;;;5050373;28;20027;-88
2021/12/08 07:16:16;;;;;;;91.90;38.58;;;;;;;;;;5050600;28;20029;-89
2021/12/08 07:18:54;;;;;;;84.00;38.88;;;;;;;;;;5050331;28;20029;-88
2021/12/08 07:21:22;;;;;;;91.82;41.10;;;;;;;;;;5050680;28;20017;-89
2021/12/08 07:23:57;;;;;;;86.72;41.10;;;;;;;;;;5032486;28;20056;-88
2021/12/08 07:26:27;;;;;;;96.90;40.65;;;;;;;;;;5031926;28;20497;-89
2021/12/08 07:28:53;;;;;;;80.40;38.65;;;;;;;;;;5050258;28;20028;-89
2021/12/08 07:31:21;;;;;;;83.45;37.28;;;;;;;;;;5032516;28;20032;-88
2021/12/08 07:33:47;;;;;;;88.75;40.00;;;;;;;;;;5050443;28;20079;-88
2021/12/08 07:36:16;;;;;;;86.70;40.92;;;;;;;;;;5032370;28;20052;-88
2021/12/08 07:38:43;;;;;;;90.13;38.80;;;;;;;;;;5032400;28;20013;-89
2021/12/08 07:41:14;;;;;;;95.68;42.03;;;;;;;;;;5031667;28;20024;-88
2021/12/08 07:43:42;;;;;;;98.63;41.40;;;;;;;;;;5032053;28;20380;-89
2021/12/08 07:46:20;;;;;;;83.05;39.05;;;;;;;;;;5056845;28;20017;-88
2021/12/08 07:48:51;;;;;;;98.32;44.47;;;;;;;;;;5032258;28;20393;-89
2021/12/08 07:51:24;;;;;;;85.03;39.42;;;;;;;;;;5031851;28;20029;-89
2021/12/08 07:53:49;;;;;;;91.55;40.58;;;;;;;;;;5049929;28;20365;-89
2021/12/08 07:56:16;;;;;;;89.70;40.22;;;;;;;;;;5031867;28;20082;-89
2021/12/08 07:58:43;;;;;;;106.60;42.13;;;;;;;;;;5050439;28;20668;-88
2021/12/08 08:01:10;;;;;;;96.38;40.75;;;;;;;;;;5031954;28;20028;-89
2021/12/08 08:03:36;;;;;;;71.65;38.95;;;;;;;;;;5031440;28;20035;-88
2021/12/08 08:06:03;;;;;;;81.93;38.53;;;;;;;;;;5031630;28;20025;-88
2021/12/08 08:08:31;;;;;;;84.38;38.88;;;;;;;;;;5049766;28;20772;-89
2021/12/08 08:11:19;;;;;;;87.90;37.95;;;;;;;;;;5049891;28;20016;-88
2021/12/08 08:13:45;;;;;;;81.47;38.20;;;;;;;;;;5039396;28;20037;-88
2021/12/08 08:16:12;;;;;;;104.13;41.70;;;;;;;;;;5049716;28;20381;-88
2021/12/08 08:18:39;;;;;;;81.82;40.30;;;;;;;;;;5031812;28;20025;-89
2021/12/08 08:21:19;;;;;;;85.07;39.92;;;;;;;;;;5032049;28;20564;-89
2021/12/08 08:23:45;;;;;;;83.35;39.10;;;;;;;;;;5032209;28;20074;-89
2021/12/08 08:26:10;;;;;;;96.25;40.95;;;;;;;;;;5032081;28;20025;-89
2021/12/08 08:28:36;;;;;;;88.85;40.95;;;;;;;;;;5031621;28;20025;-89
2021/12/08 08:31:04;;;;;;;71.72;37.40;;;;;;;;;;5032000;28;20044;-89
2021/12/08 08:33:31;;;;;;;87.35;39.53;;;;;;;;;;5031306;28;20745;-89
2021/12/08 08:35:57;;;;;;;81.85;38.72;;;;;;;;;;5032549;28;20457;-88
2021/12/08 08:38:26;;;;;;;85.35;37.67;;;;;;;;;;5049355;28;20032;-88
2021/12/08 08:40:55;;;;;;;69.15;37.42;;;;;;;;;;5031299;28;20029;-88
2021/12/08 08:43:20;;;;;;;73.43;34.42;;;;;;;;;;5048994;28;20044;-88
2021/12/08 08:45:52;;;;;;;88.28;40.10;;;;;;;;;;5031613;28;20033;-89
2021/12/08 08:48:23;;;;;;;87.25;38.97;;;;;;;;;;5031718;28;20021;-89
2021/12/08 08:51:07;;;;;;;88.15;41.78;;;;;;;;;;5031470;28;20044;-88
2021/12/08 08:53:35;;;;;;;76.93;38.00;;;;;;;;;;5052545;28;20032;-89
2021/12/08 08:56:03;;;;;;;101.55;41.58;;;;;;;;;;5035432;28;20021;-88
2021/12/08 08:58:30;;;;;;;95.45;40.45;;;;;;;;;;5054199;28;20032;-89
2021/12/08 09:01:04;;;;;;;106.15;41.45;;;;;;;;;;5053493;28;20013;-89
2021/12/08 09:03:34;;;;;;;95.85;42.03;;;;;;;;;;5052805;28;20664;-88
2021/12/08 09:06:11;;;;;;;86.03;39.88;;;;;;;;;;5034803;28;20013;-89
2021/12/08 09:08:38;;;;;;;100.03;41.72;;;;;;;;;;5053111;28;20021;-89
2021/12/08 09:11:15;;;;;;;91.00;44.00;;;;;;;;;;5035136;28;20032;-89
2021/12/08 09:13:44;;;;;;;105.72;44.33;;;;;;;;;;5053258;28;20696;-89
2021/12/08 09:16:11;;;;;;;83.38;39.53;;;;;;;;;;5052706;28;20362;-89
2021/12/08 09:18:49;;;;;;;105.30;42.08;;;;;;;;;;5035151;28;20113;-90
2021/12/08 09:21:26;;;;;;;96.35;41.50;;;;;;;;;;5052928;28;20028;-89
2021/12/08 09:23:57;;;;;;;68.88;36.15;;;;;;;;;;5035279;28;20035;-89
2021/12/08 09:26:23;;;;;;;68.28;36.28;;;;;;;;;;5052937;28;20057;-89
2021/12/08 09:28:51;;;;;;;75.10;37.22;;;;;;;;;;5053139;28;20052;-89
2021/12/08 09:31:25;;;;;;;75.03;37.35;;;;;;;;;;5038651;28;20021;-89
2021/12/08 09:33:57;;;;;;;73.07;35.70;;;;;;;;;;5034856;28;20514;-89
2021/12/08 09:36:26;;;;;;;72.93;35.90;;;;;;;;;;5034288;28;20028;-89
2021/12/08 09:38:53;;;;;;;80.50;37.72;;;;;;;;;;5051130;28;20036;-89
2021/12/08 09:41:26;;;;;;;76.90;35.10;;;;;;;;;;5033674;28;20029;-89
2021/12/08 09:44:04;;;;;;;70.50;35.78;;;;;;;;;;5034415;28;20095;-89
2021/12/08 09:46:33;;;;;;;62.97;34.88;;;;;;;;;;5033423;28;20078;-89
2021/12/08 09:48:58;;;;;;;74.43;36.92;;;;;;;;;;5051282;28;20056;-89
2021/12/08 09:51:25;;;;;;;70.93;35.20;;;;;;;;;;5033364;28;20472;-88
2021/12/08 09:53:51;;;;;;;79.53;37.92;;;;;;;;;;5033486;28;20554;-89
2021/12/08 09:56:17;;;;;;;65.45;34.03;;;;;;;;;;5051447;28;20017;-88
2021/12/08 09:58:43;;;;;;;56.97;33.58;;;;;;;;;;5053238;28;20472;-88
2021/12/08 10:01:12;;;;;;;68.57;35.47;;;;;;;;;;5050849;28;20024;-89
2021/12/08 10:03:38;;;;;;;66.35;36.25;;;;;;;;;;5050942;28;20039;-89
2021/12/08 10:06:03;;;;;;;89.00;40.45;;;;;;;;;;5033478;28;20111;-89
2021/12/08 10:08:28;;;;;;;72.05;35.80;;;;;;;;;;5033292;28;20019;-89
2021/12/08 10:10:54;;;;;;;67.03;34.95;;;;;;;;;;5051165;28;20047;-89
2021/12/08 10:13:20;;;;;;;72.97;35.72;;;;;;;;;;5033417;28;20412;-89
2021/12/08 10:15:45;;;;;;;66.32;35.30;;;;;;;;;;5033375;28;20016;-89
2021/12/08 10:18:11;;;;;;;68.35;35.58;;;;;;;;;;5051140;28;20393;-89
2021/12/08 10:20:38;;;;;;;77.20;37.83;;;;;;;;;;5032942;28;20025;-89
2021/12/08 10:23:10;;;;;;;61.10;34.05;;;;;;;;;;5032641;28;20503;-89
2021/12/08 10:25:37;;;;;;;79.50;36.75;;;;;;;;;;5033884;28;20025;-89
2021/12/08 10:28:11;;;;;;;60.78;34.38;;;;;;;;;;5033007;28;20049;-88
2021/12/08 10:30:45;;;;;;;60.47;34.50;;;;;;;;;;5050583;28;20024;-89
2021/12/08 10:33:35;;;;;;;70.57;35.90;;;;;;;;;;5050675;28;20476;-89
2021/12/08 10:36:05;;;;;;;70.13;35.35;;;;;;;;;;5032608;28;20033;-89
2021/12/08 10:38:39;;;;;;;68.43;35.35;;;;;;;;;;5050774;28;20075;-89
2021/12/08 10:41:05;;;;;;;58.65;32.63;;;;;;;;;;5032728;28;20017;-89
2021/12/08 10:43:30;;;;;;;73.43;35.42;;;;;;;;;;5050578;28;20108;-89
2021/12/08 10:46:00;;;;;;;66.65;34.58;;;;;;;;;;5050629;28;20100;-89
2021/12/08 10:48:35;;;;;;;70.40;34.35;;;;;;;;;;5050520;28;20396;-89
2021/12/08 10:54:45;;;;;;;68.82;36.70;;;;;;;;;;5051651;28;20044;-89
2021/12/08 10:56:40;;;;;;;61.13;31.42;;;;;;;;;;5017453;28;20148;-88
2021/12/08 10:59:06;;;;;;;58.13;32.33;;;;;;;;;;5030756;28;20026;-88
2021/12/08 11:01:31;;;;;;;58.65;33.08;;;;;;;;;;5012741;28;20021;-89
2021/12/08 11:04:04;;;;;;;58.10;32.08;;;;;;;;;;5013146;28;20029;-89
2021/12/08 11:06:39;;;;;;;60.05;33.60;;;;;;;;;;5030740;28;20029;-89
2021/12/08 11:09:13;;;;;;;59.08;32.33;;;;;;;;;;5018788;28;21175;-88
2021/12/08 11:11:43;;;;;;;56.67;31.85;;;;;;;;;;5050817;28;20039;-89
2021/12/08 11:14:09;;;;;;;66.07;33.63;;;;;;;;;;5033097;28;20377;-88
2021/12/08 11:16:35;;;;;;;63.30;32.97;;;;;;;;;;5032193;28;20028;-89
2021/12/08 11:19:05;;;;;;;53.72;31.25;;;;;;;;;;5059787;23;20394;-88
2021/12/08 11:21:36;;;;;;;58.88;31.20;;;;;;;;;;5030397;28;20436;-89
2021/12/08 11:24:03;;;;;;;59.38;32.92;;;;;;;;;;5013402;28;20036;-88
2021/12/08 11:26:30;;;;;;;55.28;31.27;;;;;;;;;;5030602;28;20704;-88
2021/12/08 11:28:58;;;;;;;58.17;31.55;;;;;;;;;;5012256;28;20119;-89
2021/12/08 11:31:23;;;;;;;56.88;31.13;;;;;;;;;;5030212;28;20022;-89
2021/12/08 11:33:58;;;;;;;55.90;32.30;;;;;;;;;;5012454;28;20028;-89
2021/12/08 11:36:25;;;;;;;53.15;30.65;;;;;;;;;;5012462;28;20037;-89
2021/12/08 11:38:51;;;;;;;49.65;28.08;;;;;;;;;;5012393;28;20421;-89
2021/12/08 11:41:22;;;;;;;49.70;28.80;;;;;;;;;;5013221;28;20048;-89
2021/12/08 11:43:55;;;;;;;51.88;30.55;;;;;;;;;;5030123;28;20052;-89
2021/12/08 11:46:20;;;;;;;50.72;28.08;;;;;;;;;;5030327;28;20025;-89
2021/12/08 11:48:51;;;;;;;57.60;32.47;;;;;;;;;;5012130;28;20869;-89
2021/12/08 11:51:18;;;;;;;53.35;30.67;;;;;;;;;;5012548;28;20009;-89
2021/12/08 11:53:44;;;;;;;54.35;29.17;;;;;;;;;;5011903;28;20120;-89
2021/12/08 11:56:28;;;;;;;45.28;28.55;;;;;;;;;;5029622;28;20100;-89
2021/12/08 11:58:54;;;;;;;52.72;28.77;;;;;;;;;;5010497;28;20022;-89
2021/12/08 12:01:19;;;;;;;49.38;28.83;;;;;;;;;;4992314;28;20382;-89
2021/12/08 12:03:45;;;;;;;48.33;28.50;;;;;;;;;;5004758;28;20028;-89
2021/12/08 12:06:10;;;;;;;44.20;26.73;;;;;;;;;;5011825;28;20029;-89
2021/12/08 12:08:35;;;;;;;53.30;29.45;;;;;;;;;;5010382;28;20049;-89
2021/12/08 12:11:02;;;;;;;46.03;27.27;;;;;;;;;;5029051;28;20024;-89
2021/12/08 12:13:28;;;;;;;47.08;27.17;;;;;;;;;;5028704;28;20060;-89
2021/12/08 12:15:53;;;;;;;56.83;30.05;;;;;;;;;;5011217;28;20060;-89
2021/12/08 12:18:20;;;;;;;46.50;28.27;;;;;;;;;;5011549;28;20037;-89
2021/12/08 12:20:47;;;;;;;49.22;29.85;;;;;;;;;;5030176;28;20119;-89
2021/12/08 12:23:22;;;;;;;48.25;28.10;;;;;;;;;;5011788;28;20500;-89
2021/12/08 12:25:50;;;;;;;53.35;28.65;;;;;;;;;;5029632;28;20095;-89
2021/12/08 12:28:29;;;;;;;47.35;29.00;;;;;;;;;;5033488;28;20025;-89
2021/12/08 12:30:57;;;;;;;48.50;27.90;;;;;;;;;;5017810;28;20389;-88
2021/12/08 12:33:23;;;;;;;50.13;29.33;;;;;;;;;;5032818;28;20499;-88
2021/12/08 12:35:49;;;;;;;48.10;27.42;;;;;;;;;;5015347;28;20021;-88
2021/12/08 12:38:14;;;;;;;47.20;28.23;;;;;;;;;;5015338;28;20041;-88
2021/12/08 12:40:46;;;;;;;50.63;29.27;;;;;;;;;;5016206;28;20029;-88
2021/12/08 12:43:22;;;;;;;45.05;27.45;;;;;;;;;;5015644;28;20069;-89
2021/12/08 12:45:47;;;;;;;45.67;26.13;;;;;;;;;;5015121;28;20033;-88
2021/12/08 12:48:16;;;;;;;53.17;27.67;;;;;;;;;;5014979;28;20025;-88
2021/12/08 12:50:58;;;;;;;44.95;27.75;;;;;;;;;;5032884;28;20029;-89
2021/12/08 12:53:32;;;;;;;47.13;27.35;;;;;;;;;;5015794;28;20022;-89
2021/12/08 12:55:57;;;;;;;48.13;27.80;;;;;;;;;;5015052;28;20026;-89
2021/12/08 12:58:23;;;;;;;47.47;28.00;;;;;;;;;;5033000;28;20134;-89
2021/12/08 13:01:06;;;;;;;52.80;28.73;;;;;;;;;;5015277;28;20022;-89
2021/12/08 13:03:35;;;;;;;50.88;27.58;;;;;;;;;;5032856;28;20640;-88
2021/12/08 13:06:01;;;;;;;49.45;28.30;;;;;;;;;;5014838;28;20019;-88
2021/12/08 13:08:31;;;;;;;48.33;28.30;;;;;;;;;;5014576;28;20031;-88
2021/12/08 13:10:59;;;;;;;50.28;28.52;;;;;;;;;;5034380;28;20097;-89
2021/12/08 13:13:24;;;;;;;49.42;29.63;;;;;;;;;;5014633;28;20024;-89
2021/12/08 13:15:49;;;;;;;57.25;28.48;;;;;;;;;;5014752;28;20025;-89
2021/12/08 13:18:16;;;;;;;48.67;26.97;;;;;;;;;;5032444;28;20046;-88
2021/12/08 13:20:43;;;;;;;51.83;30.85;;;;;;;;;;5032116;28;20760;-89
2021/12/08 13:23:10;;;;;;;52.45;29.20;;;;;;;;;;5014642;28;20084;-88
2021/12/08 13:25:43;;;;;;;50.65;30.45;;;;;;;;;;5033167;28;20067;-89
2021/12/08 13:28:13;;;;;;;57.05;26.60;;;;;;;;;;5033151;28;20567;-89
2021/12/08 13:30:43;;;;;;;46.42;26.95;;;;;;;;;;5014305;28;20076;-88
2021/12/08 13:33:27;;;;;;;44.50;27.60;;;;;;;;;;5037705;28;20056;-88
2021/12/08 13:35:53;;;;;;;52.22;28.90;;;;;;;;;;5021462;28;20067;-88
2021/12/08 13:38:19;;;;;;;51.45;28.33;;;;;;;;;;5013577;28;20043;-89
2021/12/08 13:40:44;;;;;;;45.88;27.55;;;;;;;;;;5013987;28;20022;-88
2021/12/08 13:43:10;;;;;;;46.50;27.35;;;;;;;;;;5031981;28;20033;-89
2021/12/08 13:45:42;;;;;;;45.95;28.45;;;;;;;;;;5013916;28;20441;-89
2021/12/08 13:48:08;;;;;;;50.47;28.92;;;;;;;;;;5014092;28;20022;-88
2021/12/08 13:50:34;;;;;;;48.05;28.35;;;;;;;;;;5031943;28;20447;-89
2021/12/08 13:53:10;;;;;;;56.97;30.30;;;;;;;;;;5014091;28;20026;-89
2021/12/08 13:55:38;;;;;;;42.33;27.42;;;;;;;;;;5031519;28;20036;-88
2021/12/08 13:58:07;;;;;;;46.60;28.75;;;;;;;;;;5031410;28;20037;-89
2021/12/08 14:00:35;;;;;;;44.58;27.15;;;;;;;;;;5031378;28;20026;-89
2021/12/08 14:03:00;;;;;;;47.42;28.05;;;;;;;;;;5031631;28;20072;-89
2021/12/08 14:05:29;;;;;;;46.80;28.20;;;;;;;;;;5013686;28;20030;-89
2021/12/08 14:07:56;;;;;;;55.92;28.95;;;;;;;;;;5013486;28;20276;-89
2021/12/08 14:10:34;;;;;;;53.03;28.73;;;;;;;;;;5031527;28;20021;-89
2021/12/08 14:13:01;;;;;;;51.75;29.58;;;;;;;;;;5012788;28;20801;-88
2021/12/08 14:15:32;;;;;;;49.20;27.58;;;;;;;;;;4994709;28;20081;-89
2021/12/08 14:18:16;;;;;;;44.83;28.20;;;;;;;;;;5010632;28;20037;-89
2021/12/08 14:20:42;;;;;;;46.00;27.63;;;;;;;;;;4993075;28;20057;-89
2021/12/08 14:23:08;;;;;;;52.33;30.55;;;;;;;;;;5010123;28;20496;-89
2021/12/08 14:25:34;;;;;;;48.72;27.95;;;;;;;;;;4993437;28;20025;-89
2021/12/08 14:28:00;;;;;;;57.50;30.17;;;;;;;;;;5024755;28;20023;-89
2021/12/08 14:30:25;;;;;;;53.17;29.70;;;;;;;;;;5013196;28;20025;-89
2021/12/08 14:33:00;;;;;;;47.78;28.90;;;;;;;;;;5013037;28;20030;-89
2021/12/08 14:35:26;;;;;;;48.20;28.02;;;;;;;;;;5030858;28;20032;-89
2021/12/08 14:37:58;;;;;;;45.17;28.02;;;;;;;;;;5031626;28;20041;-89
2021/12/08 14:40:24;;;;;;;53.20;30.17;;;;;;;;;;5030847;28;20072;-89
2021/12/08 14:42:49;;;;;;;55.58;29.50;;;;;;;;;;5012274;28;20037;-88
2021/12/08 14:45:14;;;;;;;49.03;28.97;;;;;;;;;;5012927;28;20067;-88
2021/12/08 14:47:43;;;;;;;50.10;28.83;;;;;;;;;;5013153;28;20268;-89
2021/12/08 14:50:11;;;;;;;49.40;27.95;;;;;;;;;;5011463;28;20049;-89
2021/12/08 14:52:37;;;;;;;50.08;29.52;;;;;;;;;;5030083;28;20382;-88
2021/12/08 14:55:04;;;;;;;55.33;31.83;;;;;;;;;;5030262;28;20022;-89
2021/12/08 14:57:30;;;;;;;50.95;29.27;;;;;;;;;;5030322;28;20033;-89
2021/12/08 14:59:58;;;;;;;49.53;31.15;;;;;;;;;;5012605;28;20021;-89
2021/12/08 15:02:30;;;;;;;47.33;27.75;;;;;;;;;;5030419;28;20488;-88
2021/12/08 15:04:56;;;;;;;52.70;29.27;;;;;;;;;;5012527;28;20031;-89